Time;durP1;ratioP1;P1;durP2;ratioP2;P2;SDS_P1;SDS_P2;PMS_P1;PMS_P2;Temp;Humidity;BMP_temperature;BMP_pressure;BME280_temperature;BME280_humidity;BME280_pressure;Samples;Min_cycle;Max_cycle;Signal;HPM_P1;HPM_P2
2021/12/02 00:02:04;;;;;;;2.47;2.00;;;11.20;58.50;;;;;;5980428;24;20500;-85
2021/12/02 00:07:15;;;;;;;2.17;1.93;;;10.70;56.40;;;;;;5980919;24;20463;-85
2021/12/02 00:09:43;;;;;;;2.33;2.13;;;10.20;58.50;;;;;;5980498;24;20452;-85
2021/12/02 00:26:17;;;;;;;2.70;1.80;;;9.50;64.90;;;;;;6099323;23;20390;-85
2021/12/02 02:11:03;;;;;;;2.70;2.17;;;9.00;62.60;;;;;;5093004;27;20380;-86
2021/12/02 02:13:32;;;;;;;2.77;2.00;;;9.20;63.50;;;;;;5090730;28;20478;-86
2021/12/02 02:16:07;;;;;;;2.23;2.00;;;9.80;64.80;;;;;;5090670;28;20470;-86
2021/12/02 02:18:37;;;;;;;4.33;2.17;;;10.40;57.80;;;;;;5090634;28;20758;-86
2021/12/02 02:21:17;;;;;;;3.10;2.00;;;10.40;60.90;;;;;;5089815;28;20431;-85
2021/12/02 02:23:56;;;;;;;2.00;1.90;;;10.30;59.90;;;;;;5096537;28;20447;-85
2021/12/02 02:26:26;;;;;;;7.23;2.03;;;10.10;60.50;;;;;;5110808;28;20785;-85
2021/12/02 02:28:54;;;;;;;2.70;1.87;;;10.10;56.20;;;;;;5110267;28;20481;-85
2021/12/02 02:31:22;;;;;;;3.87;2.20;;;9.60;59.20;;;;;;5110604;28;20503;-85
2021/12/02 02:33:51;;;;;;;3.33;2.20;;;9.80;61.20;;;;;;5103464;28;20459;-86
2021/12/02 02:36:23;;;;;;;3.80;2.00;;;9.70;59.00;;;;;;5090340;28;20465;-85
2021/12/02 02:38:57;;;;;;;5.43;2.20;;;9.40;60.30;;;;;;5090466;28;20467;-86
2021/12/02 02:41:28;;;;;;;2.50;1.83;;;9.50;63.70;;;;;;5090670;28;20466;-85
2021/12/02 02:44:13;;;;;;;3.43;1.83;;;9.40;61.00;;;;;;5089866;28;20439;-85
2021/12/02 02:47:26;;;;;;;3.53;2.03;;;8.80;63.10;;;;;;5090204;28;20928;-86
2021/12/02 03:38:52;;;;;;;3.10;2.00;;;9.20;60.40;;;;;;4993687;28;20451;-86
2021/12/02 04:59:27;;;;;;;2.70;2.37;;;8.70;67.00;;;;;;4839430;29;20481;-86
2021/12/02 05:39:11;;;;;;;;;;;;;;;;;;;;;
2021/12/02 05:53:45;;;;;;;5.03;2.87;;;10.40;55.60;;;;;;5053601;28;20518;-86
2021/12/02 05:56:28;;;;;;;3.40;2.30;;;9.50;57.50;;;;;;5056136;28;20513;-87
2021/12/02 05:58:57;;;;;;;2.90;2.40;;;10.10;58.40;;;;;;5050063;28;20491;-86
2021/12/02 06:01:25;;;;;;;4.27;2.80;;;10.00;56.40;;;;;;5034695;28;21026;-86
2021/12/02 06:04:14;;;;;;;5.70;3.10;;;10.10;58.00;;;;;;5035048;28;20487;-86
2021/12/02 06:06:46;;;;;;;4.97;2.50;;;10.10;58.50;;;;;;5035739;28;20472;-86
2021/12/02 06:09:20;;;;;;;5.30;2.50;;;10.40;59.10;;;;;;5034694;28;20541;-86
2021/12/02 06:12:09;;;;;;;;;;;;;;;;;;;;;
2021/12/02 06:15:20;;;;;;;2.60;2.30;;;11.30;56.90;;;;;;5039279;28;20497;-85
2021/12/02 06:18:08;;;;;;;4.93;2.87;;;11.20;53.00;;;;;;4955687;29;20459;-85
2021/12/02 06:34:25;;;;;;;3.00;2.10;;;9.20;60.80;;;;;;4762297;29;20563;-86
2021/12/02 08:19:20;;;;;;;7.53;3.37;;;9.00;62.10;;;;;;5057443;28;20470;-88
2021/12/02 08:26:02;;;;;;;5.23;3.30;;;8.40;61.60;;;;;;5036293;28;20421;-89
2021/12/02 08:29:07;;;;;;;3.87;2.83;;;8.50;60.80;;;;;;5036640;28;20463;-88
2021/12/02 08:32:02;;;;;;;4.77;2.70;;;8.20;64.20;;;;;;5036785;28;20503;-89
2021/12/02 08:35:17;;;;;;;4.20;3.33;;;8.00;62.40;;;;;;5036516;28;20445;-89
2021/12/02 08:38:33;;;;;;;4.83;3.37;;;8.00;62.40;;;;;;5030696;28;20453;-88
2021/12/02 08:44:43;;;;;;;5.30;2.43;;;7.50;63.30;;;;;;5030837;28;20479;-89
2021/12/02 08:47:35;;;;;;;2.80;2.40;;;8.30;62.30;;;;;;5037912;28;20506;-88
2021/12/02 08:50:02;;;;;;;8.27;2.53;;;8.80;59.40;;;;;;5036163;28;20824;-89
2021/12/02 08:56:13;;;;;;;3.90;2.70;;;8.60;59.90;;;;;;4966805;28;20431;-90
2021/12/02 08:59:04;;;;;;;4.70;2.93;;;8.70;60.60;;;;;;5035995;28;20867;-90
2021/12/02 09:02:01;;;;;;;2.80;2.40;;;8.90;59.50;;;;;;5035656;28;20983;-89
2021/12/02 09:05:22;;;;;;;;;;;;;;;;;;;;;
2021/12/02 09:07:59;;;;;;;6.03;2.77;;;9.50;57.00;;;;;;5017335;28;20467;-89
2021/12/02 09:11:05;;;;;;;4.70;2.80;;;8.80;59.30;;;;;;5036232;28;20544;-90
2021/12/02 09:20:24;;;;;;;3.17;2.50;;;9.30;58.10;;;;;;5031594;28;20543;-89
2021/12/02 09:23:30;;;;;;;3.13;2.50;;;9.00;58.80;;;;;;5039002;28;20854;-90
2021/12/02 09:26:24;;;;;;;;;;;;;;;;;;;;;
2021/12/02 09:29:43;;;;;;;3.80;2.33;;;9.10;59.40;;;;;;5039144;28;20457;-90
2021/12/02 09:32:43;;;;;;;3.50;2.43;;;9.20;58.60;;;;;;5036998;28;20474;-89
2021/12/02 09:38:44;;;;;;;5.47;2.37;;;9.00;59.70;;;;;;5019477;28;21067;-89
2021/12/02 09:41:37;;;;;;;5.17;2.30;;;9.30;58.80;;;;;;5038540;28;20828;-89
2021/12/02 09:44:46;;;;;;;;;;;;;;;;;;;;;
2021/12/02 10:03:47;;;;;;;5.30;2.50;;;10.50;53.60;;;;;;4860034;29;20484;-89
2021/12/02 10:06:42;;;;;;;3.20;2.70;;;10.10;56.80;;;;;;4859987;29;20450;-90
2021/12/02 10:09:50;;;;;;;5.10;3.47;;;10.30;56.00;;;;;;4859851;29;20788;-89
2021/12/02 10:12:40;;;;;;;4.00;2.57;;;10.80;53.00;;;;;;4857679;29;20931;-89
2021/12/02 10:15:22;;;;;;;7.27;2.83;;;10.40;54.40;;;;;;4859807;29;20538;-90
2021/12/02 10:37:12;;;;;;;6.73;2.70;;;10.30;55.20;;;;;;4805137;29;20847;-89
2021/12/02 10:39:59;;;;;;;6.87;2.73;;;10.50;54.70;;;;;;4803264;29;20552;-90
2021/12/02 10:46:17;;;;;;;6.90;2.50;;;9.00;61.20;;;;;;4804441;29;20455;-90
2021/12/02 10:48:58;;;;;;;3.40;2.57;;;8.20;62.60;;;;;;4804695;29;20466;-89
2021/12/02 11:23:37;;;;;;;7.80;3.90;;;10.80;56.40;;;;;;5021728;28;20453;-90
2021/12/02 11:36:28;;;;;;;3.23;2.30;;;10.60;56.60;;;;;;4996538;28;20448;-89
2021/12/02 11:39:40;;;;;;;5.13;2.30;;;10.50;54.70;;;;;;4993245;28;20491;-89
2021/12/02 11:42:09;;;;;;;2.70;2.40;;;10.90;54.10;;;;;;4994809;28;20473;-90
2021/12/02 11:44:36;;;;;;;3.00;2.47;;;11.10;53.20;;;;;;4994648;28;20482;-89
2021/12/02 11:47:08;;;;;;;2.63;1.90;;;11.00;51.30;;;;;;4998018;28;20829;-90
2021/12/02 11:49:44;;;;;;;1.90;1.80;;;10.70;55.50;;;;;;4998668;28;20481;-89
2021/12/02 11:52:16;;;;;;;2.00;1.93;;;10.70;55.70;;;;;;4999149;28;20888;-90
2021/12/02 11:54:55;;;;;;;2.10;1.90;;;10.70;55.00;;;;;;4996561;28;20748;-89
2021/12/02 11:57:28;;;;;;;2.53;1.90;;;10.70;54.50;;;;;;5026449;28;20439;-90
2021/12/02 11:59:55;;;;;;;2.37;2.00;;;10.60;53.90;;;;;;5038999;28;20867;-90
2021/12/02 12:02:24;;;;;;;2.77;2.40;;;10.70;53.80;;;;;;5039054;28;20525;-90
2021/12/02 12:04:57;;;;;;;3.60;2.70;;;11.10;53.30;;;;;;5041744;28;20469;-90
2021/12/02 12:07:28;;;;;;;5.33;2.90;;;11.00;51.50;;;;;;5044137;28;20447;-90
2021/12/02 12:10:12;;;;;;;6.20;2.20;;;10.80;54.10;;;;;;5045327;28;20844;-90
2021/12/02 12:12:43;;;;;;;2.20;2.00;;;10.90;54.30;;;;;;5045188;28;20447;-91
2021/12/02 12:15:32;;;;;;;2.30;2.10;;;10.50;51.10;;;;;;5044992;28;20433;-90
2021/12/02 12:18:01;;;;;;;2.37;2.07;;;10.20;55.50;;;;;;5041113;28;20505;-90
2021/12/02 12:20:56;;;;;;;3.23;2.30;;;10.40;59.50;;;;;;5039495;28;20822;-90
2021/12/02 12:23:40;;;;;;;2.37;2.23;;;10.30;52.80;;;;;;4993787;28;20457;-90
2021/12/02 12:26:33;;;;;;;2.40;2.10;;;10.10;53.50;;;;;;5042400;28;20450;-91
2021/12/02 12:29:33;;;;;;;3.63;2.53;;;10.00;52.10;;;;;;5042146;28;20477;-90
2021/12/02 12:32:48;;;;;;;3.17;2.63;;;10.00;53.50;;;;;;5042189;28;20426;-90
2021/12/02 12:38:22;;;;;;;3.40;2.40;;;10.10;49.60;;;;;;5035206;28;20429;-87
2021/12/02 12:40:53;;;;;;;4.13;2.57;;;9.30;57.20;;;;;;5059883;28;20472;-90
2021/12/02 12:43:42;;;;;;;3.53;2.57;;;9.40;55.70;;;;;;5051168;28;20424;-87
2021/12/02 12:46:16;;;;;;;2.40;2.13;;;9.90;57.40;;;;;;5059940;28;20437;-85
2021/12/02 12:48:44;;;;;;;4.87;3.17;;;10.10;51.00;;;;;;5054531;28;20463;-90
2021/12/02 12:51:26;;;;;;;4.10;2.40;;;10.20;53.90;;;;;;5038111;28;20534;-90
2021/12/02 12:53:56;;;;;;;13.60;7.80;;;10.50;52.20;;;;;;5038962;28;20475;-90
2021/12/02 12:56:46;;;;;;;5.20;3.37;;;10.40;54.10;;;;;;5037939;28;20505;-90
2021/12/02 12:59:15;;;;;;;20.10;8.07;;;10.30;49.80;;;;;;5031857;28;20500;-90
2021/12/02 13:01:57;;;;;;;20.47;7.33;;;10.00;53.70;;;;;;5037335;28;20929;-90
2021/12/02 13:04:26;;;;;;;22.17;7.93;;;10.30;51.10;;;;;;5037892;28;20784;-89
2021/12/02 13:07:16;;;;;;;7.60;4.17;;;10.30;51.20;;;;;;5037791;28;20455;-90
2021/12/02 13:09:55;;;;;;;3.50;2.63;;;10.60;51.30;;;;;;5036536;28;20951;-90
2021/12/02 13:12:29;;;;;;;315.47;102.93;;;10.80;50.30;;;;;;5037185;28;20434;-89
2021/12/02 13:14:59;;;;;;;73.03;25.83;;;10.70;49.50;;;;;;5036765;28;20446;-91
2021/12/02 13:17:43;;;;;;;9.50;2.93;;;10.90;50.00;;;;;;5037868;28;20874;-91
2021/12/02 13:20:37;;;;;;;4.40;3.30;;;10.60;50.00;;;;;;5037211;28;20481;-90
2021/12/02 13:23:38;;;;;;;3.53;2.40;;;10.80;48.60;;;;;;5036073;28;20456;-90
2021/12/02 13:26:20;;;;;;;6.30;3.00;;;10.60;53.50;;;;;;4957110;29;20442;-90
2021/12/02 13:28:49;;;;;;;6.13;2.80;;;10.70;49.90;;;;;;4955769;29;20861;-90
2021/12/02 13:31:18;;;;;;;3.00;2.30;;;10.80;50.30;;;;;;4957419;28;20453;-90
2021/12/02 13:33:49;;;;;;;2.50;2.10;;;11.00;49.50;;;;;;4957481;29;20615;-89
2021/12/02 13:36:19;;;;;;;2.63;2.27;;;11.00;49.70;;;;;;4957041;29;20471;-90
2021/12/02 13:39:05;;;;;;;3.67;2.87;;;10.80;49.80;;;;;;4957477;28;20463;-90
2021/12/02 13:41:38;;;;;;;5.67;2.90;;;10.90;50.40;;;;;;4956527;28;20918;-89
2021/12/02 13:44:11;;;;;;;3.97;2.80;;;11.00;49.50;;;;;;4956539;29;20545;-90
2021/12/02 13:46:43;;;;;;;22.37;7.93;;;11.30;49.00;;;;;;4956062;29;20473;-89
2021/12/02 13:49:16;;;;;;;41.00;16.63;;;11.20;50.10;;;;;;4956856;29;20471;-90
2021/12/02 13:54:36;;;;;;;37.07;15.20;;;11.30;50.00;;;;;;4955534;29;20410;-91
2021/12/02 13:57:37;;;;;;;29.13;11.23;;;11.50;47.60;;;;;;4999674;28;20497;-90
2021/12/02 14:00:16;;;;;;;15.70;6.60;;;11.50;49.80;;;;;;5036381;28;20492;-90
2021/12/02 14:02:45;;;;;;;11.73;6.53;;;11.50;48.50;;;;;;5036521;28;20911;-90
2021/12/02 14:05:17;;;;;;;4.20;3.43;;;11.30;48.90;;;;;;5036336;28;20490;-90
2021/12/02 14:07:52;;;;;;;4.50;2.90;;;11.10;48.40;;;;;;5034660;28;20422;-91
2021/12/02 14:10:31;;;;;;;5.50;3.20;;;10.80;49.50;;;;;;5035552;28;20468;-90
2021/12/02 14:13:02;;;;;;;5.03;3.60;;;10.80;50.30;;;;;;5035386;28;20442;-89
2021/12/02 14:15:40;;;;;;;3.73;2.80;;;11.30;49.10;;;;;;5035427;28;20442;-90
2021/12/02 14:18:13;;;;;;;4.20;3.50;;;10.90;47.10;;;;;;5035060;28;20435;-90
2021/12/02 14:20:43;;;;;;;8.63;3.20;;;11.00;50.50;;;;;;5035005;28;20473;-90
2021/12/02 14:26:04;;;;;;;5.93;2.90;;;11.00;48.00;;;;;;5033497;28;21018;-90
2021/12/02 14:28:34;;;;;;;8.50;2.77;;;10.80;47.40;;;;;;5036851;28;20520;-90
2021/12/02 14:31:04;;;;;;;5.30;3.40;;;10.60;46.80;;;;;;5034720;28;20422;-90
2021/12/02 14:33:35;;;;;;;6.90;3.00;;;10.20;48.40;;;;;;5034400;28;20873;-91
2021/12/02 14:36:10;;;;;;;3.80;3.03;;;10.00;49.60;;;;;;5035232;28;20425;-90
2021/12/02 14:38:40;;;;;;;7.60;4.60;;;10.30;51.60;;;;;;5034853;28;20448;-91
2021/12/02 14:41:14;;;;;;;5.63;3.53;;;10.50;49.40;;;;;;5034354;28;20433;-89
2021/12/02 14:43:50;;;;;;;9.80;3.53;;;10.40;49.90;;;;;;5034561;28;20421;-90
2021/12/02 14:46:25;;;;;;;2.90;2.50;;;10.00;49.50;;;;;;5034765;28;20945;-90
2021/12/02 14:49:09;;;;;;;3.33;2.30;;;9.50;52.50;;;;;;5035940;28;20991;-91
2021/12/02 14:51:59;;;;;;;3.10;2.70;;;9.40;53.80;;;;;;5040333;28;20425;-90
2021/12/02 14:54:32;;;;;;;3.80;3.03;;;9.40;52.40;;;;;;5032997;28;20503;-89
2021/12/02 14:57:03;;;;;;;4.53;2.70;;;9.20;52.90;;;;;;5036960;28;20464;-90
2021/12/02 14:59:33;;;;;;;3.60;2.90;;;9.00;53.20;;;;;;5035203;28;20556;-90
2021/12/02 15:02:07;;;;;;;3.13;2.70;;;9.20;56.00;;;;;;5035793;28;20544;-91
2021/12/02 15:04:37;;;;;;;4.73;2.97;;;9.30;53.10;;;;;;5037207;28;20464;-91
2021/12/02 15:07:11;;;;;;;3.20;2.80;;;9.30;56.50;;;;;;5034702;28;20549;-91
2021/12/02 15:09:40;;;;;;;3.40;2.43;;;9.40;53.90;;;;;;5035706;28;20541;-92
2021/12/02 15:12:23;;;;;;;3.73;2.90;;;9.30;52.50;;;;;;5035450;28;20596;-91
2021/12/02 15:14:53;;;;;;;4.27;2.40;;;9.40;52.00;;;;;;5038924;28;20457;-90
2021/12/02 15:17:33;;;;;;;4.40;2.67;;;9.20;52.10;;;;;;5037578;28;20447;-90
2021/12/02 15:20:10;;;;;;;4.97;2.77;;;9.10;53.40;;;;;;5037868;28;20484;-91
2021/12/02 15:22:37;;;;;;;3.27;2.60;;;8.80;53.40;;;;;;5038583;28;20507;-90
2021/12/02 15:25:27;;;;;;;5.57;2.83;;;8.30;55.10;;;;;;5038186;28;20477;-90
2021/12/02 15:28:09;;;;;;;4.70;3.00;;;8.10;56.00;;;;;;5045726;28;20472;-88
2021/12/02 15:30:39;;;;;;;5.27;3.00;;;8.40;56.40;;;;;;5056900;28;20461;-88
2021/12/02 15:33:07;;;;;;;5.97;2.70;;;8.60;60.40;;;;;;5047150;28;20413;-87
2021/12/02 15:35:34;;;;;;;7.00;3.80;;;8.60;56.80;;;;;;5056991;28;20432;-87
2021/12/02 15:38:03;;;;;;;4.67;2.80;;;8.70;55.30;;;;;;5056668;28;20464;-90
2021/12/02 15:40:31;;;;;;;5.70;3.80;;;8.90;53.60;;;;;;5034225;28;20483;-91
2021/12/02 15:43:05;;;;;;;5.30;3.20;;;9.00;53.30;;;;;;5034142;28;20435;-89
2021/12/02 15:45:32;;;;;;;7.10;3.47;;;9.10;53.40;;;;;;5043567;28;20456;-89
2021/12/02 16:00:54;;;;;;;7.33;4.10;;;9.50;52.60;;;;;;4973671;28;20490;-91
2021/12/02 16:07:30;;;;;;;9.93;4.90;;;9.50;53.90;;;;;;4930444;29;21137;-91
2021/12/02 16:19:41;;;;;;;7.30;5.37;;;9.30;56.50;;;;;;4858319;29;20444;-90
2021/12/02 16:36:00;;;;;;;8.83;4.80;;;9.40;51.40;;;;;;4836055;29;20517;-90
2021/12/02 16:38:29;;;;;;;39.37;20.00;;;9.30;53.20;;;;;;4847200;29;20446;-90
2021/12/02 16:41:00;;;;;;;6.83;4.43;;;9.00;51.20;;;;;;4874629;29;20476;-90
2021/12/02 16:43:36;;;;;;;11.50;4.17;;;8.10;55.60;;;;;;4884743;29;20429;-91
2021/12/02 16:46:35;;;;;;;10.87;6.90;;;7.50;58.30;;;;;;4892157;29;20554;-90
2021/12/02 16:49:02;;;;;;;8.57;5.37;;;7.20;59.70;;;;;;4903750;29;20456;-87
2021/12/02 16:51:32;;;;;;;6.97;4.30;;;6.90;61.70;;;;;;4903478;29;20483;-89
2021/12/02 16:54:01;;;;;;;9.10;4.83;;;6.90;61.10;;;;;;4900736;29;20453;-90
2021/12/02 16:56:29;;;;;;;3.90;3.30;;;7.00;59.90;;;;;;4912308;29;20430;-90
2021/12/02 16:59:25;;;;;;;6.90;3.47;;;7.20;61.70;;;;;;4941857;29;20561;-91
2021/12/02 17:01:58;;;;;;;6.63;4.67;;;7.60;59.60;;;;;;4961898;28;20443;-91
2021/12/02 17:04:28;;;;;;;5.63;3.60;;;7.60;58.40;;;;;;5005543;28;20443;-91
2021/12/02 17:07:13;;;;;;;4.43;3.30;;;8.00;56.20;;;;;;5004255;28;20504;-91
2021/12/02 17:13:14;;;;;;;;;;;;;;;;;;;;;
2021/12/02 17:16:15;;;;;;;17.77;10.67;;;8.30;62.60;;;;;;5009427;28;20511;-90
2021/12/02 17:22:18;;;;;;;9.47;4.97;;;7.70;56.20;;;;;;4999561;28;20450;-91
2021/12/02 17:25:11;;;;;;;8.40;4.47;;;8.00;59.00;;;;;;5003168;28;20435;-90
2021/12/02 17:28:01;;;;;;;9.77;6.40;;;8.40;55.70;;;;;;4997610;28;20468;-90
2021/12/02 17:30:52;;;;;;;14.10;6.67;;;8.20;54.50;;;;;;5000564;28;20463;-90
2021/12/02 17:33:33;;;;;;;14.00;6.30;;;7.80;55.90;;;;;;4991459;28;20462;-90
2021/12/02 17:36:21;;;;;;;10.40;7.37;;;7.30;57.10;;;;;;4998167;28;20452;-90
2021/12/02 17:39:00;;;;;;;8.40;5.97;;;7.30;56.80;;;;;;4997710;28;20416;-90
2021/12/02 17:41:28;;;;;;;7.20;5.23;;;7.50;56.50;;;;;;4997373;28;20439;-90
2021/12/02 17:43:54;;;;;;;15.47;10.70;;;7.90;62.30;;;;;;4998554;28;20455;-90
2021/12/02 17:46:24;;;;;;;16.00;8.23;;;8.10;55.80;;;;;;5016433;28;20486;-90
2021/12/02 17:48:55;;;;;;;8.83;6.10;;;8.10;55.20;;;;;;5016034;28;20450;-90
2021/12/02 17:51:22;;;;;;;10.80;6.30;;;8.30;54.10;;;;;;5018020;28;20466;-89
2021/12/02 17:53:50;;;;;;;15.60;9.77;;;8.10;53.50;;;;;;5017748;28;20454;-91
2021/12/02 17:56:17;;;;;;;16.73;10.13;;;8.10;54.70;;;;;;5018805;28;20438;-91
2021/12/02 17:58:44;;;;;;;10.33;6.63;;;7.90;54.70;;;;;;5016916;28;20469;-90
2021/12/02 18:01:11;;;;;;;11.70;7.87;;;8.70;58.50;;;;;;5018758;28;20453;-90
2021/12/02 18:03:38;;;;;;;16.33;6.07;;;8.70;56.30;;;;;;5019523;28;20633;-91
2021/12/02 18:06:06;;;;;;;6.37;4.83;;;8.80;59.80;;;;;;5020306;28;20470;-91
2021/12/02 18:08:33;;;;;;;10.23;5.40;;;8.80;54.80;;;;;;5021006;28;20430;-91
2021/12/02 18:11:01;;;;;;;5.67;4.13;;;8.90;57.30;;;;;;5020526;28;20418;-90
2021/12/02 18:13:28;;;;;;;8.00;5.47;;;9.00;57.70;;;;;;5026802;28;20458;-90
2021/12/02 18:15:57;;;;;;;11.63;5.17;;;9.20;55.50;;;;;;5032972;28;20492;-88
2021/12/02 18:18:27;;;;;;;9.13;5.27;;;9.40;53.00;;;;;;5038254;28;20426;-90
2021/12/02 18:20:54;;;;;;;9.53;5.53;;;9.40;52.50;;;;;;5030476;28;20484;-87
2021/12/02 18:23:25;;;;;;;9.00;5.40;;;9.40;54.60;;;;;;5038485;28;20443;-89
2021/12/02 18:25:52;;;;;;;10.50;6.57;;;9.70;53.00;;;;;;5034999;28;20496;-91
2021/12/02 18:28:20;;;;;;;7.90;5.60;;;9.70;59.00;;;;;;5029868;28;20510;-90
2021/12/02 18:30:47;;;;;;;9.00;5.50;;;9.50;54.10;;;;;;5031621;28;20549;-91
2021/12/02 18:33:14;;;;;;;7.30;4.37;;;9.90;54.60;;;;;;5035704;28;20435;-90
2021/12/02 18:35:40;;;;;;;7.23;4.40;;;9.50;50.10;;;;;;5037479;28;20442;-92
2021/12/02 18:38:07;;;;;;;12.10;3.90;;;9.50;53.50;;;;;;5018213;28;21020;-90
2021/12/02 18:40:36;;;;;;;8.83;5.73;;;9.20;52.80;;;;;;5019945;28;20481;-90
2021/12/02 18:43:04;;;;;;;10.13;4.60;;;9.10;55.80;;;;;;5017105;28;20449;-90
2021/12/02 18:45:31;;;;;;;11.63;6.00;;;8.90;52.30;;;;;;5018559;28;20490;-90
2021/12/02 18:47:58;;;;;;;17.37;8.83;;;9.10;54.00;;;;;;5030504;28;20453;-90
2021/12/02 18:50:25;;;;;;;10.97;6.40;;;9.40;59.50;;;;;;5029603;28;20482;-90
2021/12/02 18:52:52;;;;;;;6.57;4.00;;;9.60;53.00;;;;;;5029950;28;20450;-90
2021/12/02 18:55:19;;;;;;;15.40;4.43;;;9.50;54.70;;;;;;5031747;28;20473;-89
2021/12/02 18:57:49;;;;;;;6.30;4.30;;;9.50;54.20;;;;;;5028254;28;20505;-90
2021/12/02 19:00:21;;;;;;;5.23;4.47;;;10.20;58.80;;;;;;5023431;28;20458;-91
2021/12/02 19:02:49;;;;;;;8.67;5.83;;;10.80;53.80;;;;;;5021718;28;20442;-90
2021/12/02 19:05:20;;;;;;;7.47;5.30;;;10.90;51.30;;;;;;5021654;28;20513;-90
2021/12/02 19:08:04;;;;;;;9.47;5.60;;;11.20;52.80;;;;;;5022363;28;20520;-90
2021/12/02 19:26:59;;;;;;;6.40;4.60;;;9.80;51.70;;;;;;5023016;28;20488;-92
2021/12/02 19:29:27;;;;;;;6.40;4.20;;;8.70;57.10;;;;;;5026546;28;20450;-92
2021/12/02 19:31:55;;;;;;;7.47;5.20;;;8.20;55.20;;;;;;5043130;28;20906;-92
2021/12/02 19:34:22;;;;;;;4.77;4.43;;;8.10;59.20;;;;;;5042868;28;20514;-91
2021/12/02 19:36:49;;;;;;;5.70;4.40;;;8.40;59.40;;;;;;5042846;28;20804;-92
2021/12/02 19:39:16;;;;;;;9.27;4.93;;;8.90;52.70;;;;;;5043050;28;20468;-91
2021/12/02 19:41:47;;;;;;;14.67;7.97;;;9.20;52.60;;;;;;5040749;28;20437;-92
2021/12/02 19:44:15;;;;;;;12.87;7.13;;;8.20;53.80;;;;;;5047906;28;20444;-91
2021/12/02 19:46:43;;;;;;;12.17;6.77;;;7.80;59.30;;;;;;5044470;28;20496;-91
2021/12/02 19:49:11;;;;;;;12.50;7.73;;;7.30;57.30;;;;;;5048131;28;20483;-91
2021/12/02 19:51:38;;;;;;;16.93;9.53;;;7.40;57.80;;;;;;5046122;28;20429;-91
2021/12/02 19:54:06;;;;;;;12.60;7.97;;;7.40;57.10;;;;;;5041376;28;20487;-91
2021/12/02 19:56:34;;;;;;;14.20;8.23;;;7.10;60.60;;;;;;5042921;28;20451;-91
2021/12/02 19:59:06;;;;;;;15.73;8.47;;;7.20;62.30;;;;;;5045825;28;20483;-91
2021/12/02 20:02:08;;;;;;;14.57;8.80;;;7.50;58.30;;;;;;5046079;28;20484;-91
2021/12/02 20:04:36;;;;;;;12.90;8.17;;;6.80;59.60;;;;;;4964649;28;20452;-92
2021/12/02 20:07:04;;;;;;;12.33;7.40;;;7.00;61.50;;;;;;4968538;29;20473;-91
2021/12/02 20:09:32;;;;;;;14.37;7.90;;;7.30;58.40;;;;;;4971928;29;20508;-91
2021/12/02 20:11:59;;;;;;;13.07;8.47;;;7.50;58.80;;;;;;4970934;29;20536;-91
2021/12/02 20:14:27;;;;;;;10.80;7.00;;;7.50;57.80;;;;;;4980160;28;20571;-89
2021/12/02 20:16:58;;;;;;;11.33;7.30;;;7.70;57.10;;;;;;4980788;28;20443;-89
2021/12/02 20:19:31;;;;;;;15.37;8.20;;;7.90;59.00;;;;;;4980287;28;20464;-89
2021/12/02 20:22:15;;;;;;;14.67;8.83;;;8.40;61.20;;;;;;4980718;28;20472;-91
2021/12/02 20:24:42;;;;;;;15.53;9.60;;;8.60;56.80;;;;;;4979361;28;20440;-89
2021/12/02 20:27:09;;;;;;;14.87;9.27;;;8.60;55.90;;;;;;4980285;28;20536;-91
2021/12/02 20:29:37;;;;;;;14.20;8.50;;;9.00;54.90;;;;;;4980079;28;20530;-90
2021/12/02 20:32:06;;;;;;;21.73;9.20;;;8.40;53.40;;;;;;4978805;28;20524;-89
2021/12/02 20:34:35;;;;;;;11.33;7.60;;;7.90;54.20;;;;;;4979572;28;20440;-90
2021/12/02 20:37:03;;;;;;;19.40;7.30;;;7.50;59.00;;;;;;4979706;28;20487;-91
2021/12/02 20:39:33;;;;;;;10.60;7.23;;;7.60;60.10;;;;;;4979374;28;20472;-90
2021/12/02 20:42:02;;;;;;;27.13;7.43;;;8.10;57.00;;;;;;5036733;28;20463;-88
2021/12/02 20:44:38;;;;;;;21.03;7.20;;;8.30;58.10;;;;;;5058613;28;20468;-91
2021/12/02 20:47:13;;;;;;;28.83;6.70;;;8.30;55.00;;;;;;5059080;28;20492;-90
2021/12/02 20:49:52;;;;;;;10.90;6.53;;;8.50;58.00;;;;;;5059503;28;20483;-91
2021/12/02 20:52:22;;;;;;;27.93;7.40;;;8.50;52.90;;;;;;5059211;28;20476;-91
2021/12/02 20:54:50;;;;;;;13.70;8.40;;;8.80;60.70;;;;;;5059674;28;20433;-90
2021/12/02 20:57:17;;;;;;;26.33;7.47;;;8.90;58.40;;;;;;5059414;28;20489;-90
2021/12/02 20:59:44;;;;;;;20.30;7.70;;;9.20;59.70;;;;;;5058901;28;20475;-89
2021/12/02 21:02:14;;;;;;;10.40;7.00;;;9.40;54.10;;;;;;5060073;28;20444;-88
2021/12/02 21:07:17;;;;;;;9.80;7.37;;;8.60;53.40;;;;;;5393355;22;20476;-88
2021/12/02 21:09:46;;;;;;;12.93;7.50;;;8.80;54.50;;;;;;5060205;28;20406;-88
2021/12/02 21:12:16;;;;;;;14.33;5.67;;;8.30;57.60;;;;;;5057952;28;20413;-91
2021/12/02 21:14:45;;;;;;;9.43;5.50;;;8.50;60.10;;;;;;5056548;28;20496;-91
2021/12/02 21:17:13;;;;;;;11.60;5.93;;;8.70;55.10;;;;;;5047697;28;20442;-92
2021/12/02 21:19:42;;;;;;;11.53;6.13;;;8.70;56.90;;;;;;5043565;28;20461;-91
2021/12/02 21:22:12;;;;;;;12.87;5.40;;;8.80;56.80;;;;;;5045167;28;20469;-91
2021/12/02 21:24:43;;;;;;;9.50;6.13;;;8.70;56.80;;;;;;5048547;28;20501;-92
2021/12/02 21:27:14;;;;;;;7.57;5.57;;;8.50;56.60;;;;;;5044145;28;20808;-92
2021/12/02 21:29:42;;;;;;;8.00;6.50;;;8.70;54.50;;;;;;5045242;28;20477;-91
2021/12/02 21:32:09;;;;;;;17.97;5.83;;;9.40;58.60;;;;;;5043794;28;20510;-92
2021/12/02 21:34:38;;;;;;;26.33;5.97;;;9.80;56.50;;;;;;5044997;28;20444;-92
2021/12/02 21:37:16;;;;;;;7.30;5.40;;;10.00;55.10;;;;;;5045989;28;20838;-91
2021/12/02 21:39:45;;;;;;;8.50;5.40;;;9.70;54.00;;;;;;5052863;28;20465;-91
2021/12/02 21:42:14;;;;;;;9.80;6.30;;;8.90;52.30;;;;;;5057726;28;20524;-91
2021/12/02 21:44:43;;;;;;;12.70;6.27;;;8.50;52.90;;;;;;5057617;28;20461;-91
2021/12/02 21:47:10;;;;;;;9.90;6.40;;;8.40;55.50;;;;;;5058141;28;20481;-91
2021/12/02 21:49:38;;;;;;;10.53;6.60;;;8.40;55.00;;;;;;5057458;28;20531;-90
2021/12/02 21:52:06;;;;;;;10.03;6.33;;;8.50;55.40;;;;;;5057744;28;20433;-90
2021/12/02 21:54:35;;;;;;;10.50;5.33;;;9.00;56.10;;;;;;5058398;28;20499;-92
2021/12/02 21:57:03;;;;;;;8.80;6.23;;;9.00;55.40;;;;;;5057321;28;20516;-91
2021/12/02 21:59:36;;;;;;;8.00;5.87;;;8.90;53.20;;;;;;5057509;28;20513;-90
2021/12/02 22:02:06;;;;;;;9.63;5.80;;;8.30;56.80;;;;;;5058152;28;20485;-91
2021/12/02 22:04:34;;;;;;;10.20;5.40;;;8.20;55.60;;;;;;5057054;28;20456;-91
2021/12/02 22:07:01;;;;;;;10.90;5.60;;;8.20;55.70;;;;;;5057175;28;20477;-91
2021/12/02 22:09:28;;;;;;;7.60;5.50;;;8.50;54.30;;;;;;5057853;28;20504;-91
2021/12/02 22:11:56;;;;;;;7.30;5.37;;;8.30;56.20;;;;;;5057682;28;20449;-91
2021/12/02 22:14:25;;;;;;;7.20;4.93;;;8.40;53.70;;;;;;5056860;28;20580;-89
2021/12/02 22:17:06;;;;;;;8.90;4.97;;;8.20;52.30;;;;;;5057025;28;20462;-90
2021/12/02 22:19:33;;;;;;;7.23;5.37;;;8.70;60.80;;;;;;5057184;28;20468;-89
2021/12/02 22:22:01;;;;;;;7.00;5.07;;;9.00;52.70;;;;;;5057102;28;20449;-89
2021/12/02 22:24:29;;;;;;;5.73;4.60;;;8.40;51.50;;;;;;5057185;28;20457;-90
2021/12/02 22:26:56;;;;;;;9.30;5.33;;;8.80;54.80;;;;;;5056451;28;20620;-90
2021/12/02 22:29:23;;;;;;;8.47;5.53;;;8.60;53.70;;;;;;5054923;28;20477;-91
2021/12/02 22:31:50;;;;;;;7.57;5.30;;;8.60;52.90;;;;;;5056346;28;20465;-91
2021/12/02 22:34:19;;;;;;;6.97;4.77;;;9.20;55.10;;;;;;5056179;28;20467;-90
2021/12/02 22:36:48;;;;;;;8.07;5.77;;;9.50;57.70;;;;;;5056949;28;20464;-91
2021/12/02 22:39:17;;;;;;;10.97;5.47;;;9.80;51.60;;;;;;5056397;28;20481;-91
2021/12/02 22:41:45;;;;;;;9.23;5.20;;;9.60;50.20;;;;;;5055851;28;20445;-90
2021/12/02 22:44:12;;;;;;;9.23;5.20;;;9.70;52.40;;;;;;5056316;28;20472;-91
2021/12/02 22:46:41;;;;;;;5.33;4.00;;;9.90;51.30;;;;;;5055284;28;20524;-91
2021/12/02 22:49:09;;;;;;;7.83;4.93;;;10.10;55.50;;;;;;5054954;28;20449;-91
2021/12/02 22:51:37;;;;;;;7.73;5.50;;;10.40;53.10;;;;;;5054983;28;20453;-91
2021/12/02 22:54:05;;;;;;;10.17;5.40;;;10.40;52.70;;;;;;5053304;28;20441;-91
2021/12/02 22:56:32;;;;;;;12.63;6.00;;;10.20;50.60;;;;;;5053581;28;20444;-90
2021/12/02 22:58:59;;;;;;;13.77;6.10;;;9.70;48.00;;;;;;5051264;28;20560;-91
2021/12/02 23:01:26;;;;;;;12.43;5.50;;;9.70;50.30;;;;;;5034888;28;20916;-91
2021/12/02 23:03:55;;;;;;;9.50;5.57;;;9.50;50.10;;;;;;5049046;28;20445;-90
2021/12/02 23:06:23;;;;;;;11.53;5.90;;;9.40;53.40;;;;;;5036419;28;20913;-91
2021/12/02 23:08:51;;;;;;;8.53;5.33;;;9.20;49.80;;;;;;5033827;28;20514;-91
2021/12/02 23:11:20;;;;;;;6.40;4.70;;;8.90;52.70;;;;;;5033689;28;20468;-91
2021/12/02 23:13:47;;;;;;;7.67;5.13;;;8.70;53.30;;;;;;5033700;28;20480;-90
2021/12/02 23:16:15;;;;;;;8.90;5.20;;;8.90;53.30;;;;;;5033294;28;20521;-91
2021/12/02 23:18:42;;;;;;;10.23;5.47;;;8.80;51.80;;;;;;5033482;28;20441;-91
2021/12/02 23:21:09;;;;;;;8.63;5.27;;;8.80;51.00;;;;;;5033397;28;20988;-91
2021/12/02 23:23:37;;;;;;;11.00;5.97;;;8.70;55.10;;;;;;5033438;28;20933;-91
2021/12/02 23:26:13;;;;;;;6.87;4.50;;;9.50;56.80;;;;;;5033297;28;20505;-91
2021/12/02 23:28:43;;;;;;;7.20;5.40;;;9.30;58.70;;;;;;5032737;28;20476;-90